createdAt,value
2022-10-24T00:00:42.746Z,19.04
2022-10-24T00:01:44.306Z,19.03
2022-10-24T00:02:45.892Z,18.96
2022-10-24T00:03:48.091Z,18.90
2022-10-24T00:04:49.671Z,18.86
2022-10-24T00:05:51.161Z,18.81
2022-10-24T00:06:52.670Z,18.71
2022-10-24T00:07:54.247Z,18.68
2022-10-24T00:08:55.774Z,18.72
2022-10-24T00:09:57.284Z,18.75
2022-10-24T00:10:58.702Z,18.75
2022-10-24T00:12:00.165Z,18.75
2022-10-24T00:13:01.638Z,18.82
2022-10-24T00:14:03.935Z,18.86
2022-10-24T00:15:05.915Z,18.91
2022-10-24T00:16:07.595Z,18.98
2022-10-24T00:17:09.114Z,19.00
2022-10-24T00:18:10.560Z,19.03
2022-10-24T00:19:11.975Z,19.05
2022-10-24T00:20:13.454Z,19.06
2022-10-24T00:21:14.904Z,19.07
2022-10-24T00:22:16.371Z,19.08
2022-10-24T00:23:17.851Z,19.08
2022-10-24T00:24:19.310Z,19.10
2022-10-24T00:25:20.731Z,19.10
2022-10-24T00:26:22.194Z,19.09
2022-10-24T00:27:24.054Z,19.09
2022-10-24T00:28:25.546Z,19.10
2022-10-24T00:29:26.964Z,19.10
2022-10-24T00:30:28.488Z,19.09
2022-10-24T00:31:30.005Z,19.09
2022-10-24T00:32:31.515Z,19.09
2022-10-24T00:33:33.010Z,19.10
2022-10-24T00:34:34.459Z,19.10
2022-10-24T00:35:35.968Z,19.09
2022-10-24T00:36:37.403Z,19.08
2022-10-24T00:37:38.859Z,19.08
2022-10-24T00:38:40.342Z,19.09
2022-10-24T00:39:41.789Z,19.09
2022-10-24T00:40:43.555Z,19.09
2022-10-24T00:41:45.184Z,19.08
2022-10-24T00:42:47.121Z,19.09
2022-10-24T00:43:48.674Z,19.08
2022-10-24T00:44:51.875Z,19.08
2022-10-24T00:45:55.152Z,19.07
2022-10-24T00:46:57.809Z,19.05
2022-10-24T00:47:59.398Z,19.05
2022-10-24T00:49:00.842Z,19.04
2022-10-24T00:50:02.942Z,19.04
2022-10-24T00:51:07.261Z,19.03
2022-10-24T00:52:09.010Z,19.02
2022-10-24T00:53:10.491Z,19.02
2022-10-24T00:54:12.255Z,19.02
2022-10-24T00:55:13.760Z,19.03
2022-10-24T00:56:15.329Z,19.03
2022-10-24T00:57:20.221Z,19.03
2022-10-24T00:58:22.259Z,19.03
2022-10-24T00:59:23.726Z,19.03
2022-10-24T01:00:26.523Z,19.02
2022-10-24T01:01:28.384Z,19.01
2022-10-24T01:02:30.045Z,19.01
2022-10-24T01:03:31.864Z,19.01
2022-10-24T01:04:33.415Z,18.97
2022-10-24T01:05:40.743Z,18.90
2022-10-24T01:07:11.894Z,18.86
2022-10-24T01:08:25.267Z,18.85
2022-10-24T01:09:42.297Z,18.85
2022-10-24T01:10:56.000Z,18.74
2022-10-24T01:12:01.408Z,18.69
2022-10-24T01:13:15.333Z,18.66
2022-10-24T01:14:35.461Z,18.63
2022-10-24T01:16:03.072Z,18.64
2022-10-24T01:17:04.790Z,18.70
2022-10-24T01:18:11.677Z,18.73
2022-10-24T01:19:13.166Z,18.75
2022-10-24T01:20:24.050Z,18.78
2022-10-24T01:21:33.149Z,18.81
2022-10-24T01:22:46.908Z,18.82
2022-10-24T01:24:09.045Z,18.85
2022-10-24T01:25:10.603Z,18.86
2022-10-24T01:26:12.256Z,18.87
2022-10-24T01:27:19.126Z,18.88
2022-10-24T01:28:40.724Z,18.88
2022-10-24T01:29:48.409Z,18.87
2022-10-24T01:30:53.879Z,18.82
2022-10-24T01:31:56.840Z,18.79
2022-10-24T01:33:04.714Z,18.74
2022-10-24T01:34:07.982Z,18.69
2022-10-24T01:35:21.677Z,18.71
2022-10-24T01:36:29.891Z,18.72
2022-10-24T01:37:50.151Z,18.65
2022-10-24T01:38:53.334Z,18.57
2022-10-24T01:39:56.757Z,18.50
2022-10-24T01:41:03.372Z,18.44
2022-10-24T01:42:05.019Z,18.38
2022-10-24T01:43:08.857Z,18.34
2022-10-24T01:44:18.832Z,18.26
2022-10-24T01:45:22.526Z,18.26
2022-10-24T01:46:28.180Z,18.25
2022-10-24T01:47:31.335Z,18.25
2022-10-24T01:48:33.724Z,18.30
2022-10-24T01:49:35.824Z,18.33
2022-10-24T01:50:37.770Z,18.28
2022-10-24T01:51:39.384Z,18.31
2022-10-24T01:52:42.414Z,18.33
2022-10-24T01:53:44.299Z,18.36
2022-10-24T01:54:45.885Z,18.32
2022-10-24T01:55:47.535Z,18.30
2022-10-24T01:56:49.154Z,18.29
2022-10-24T01:57:50.781Z,18.29
2022-10-24T01:58:52.477Z,18.27
2022-10-24T01:59:53.987Z,18.21
2022-10-24T02:00:57.668Z,18.19
2022-10-24T02:02:01.213Z,18.22
2022-10-24T02:03:08.719Z,18.28
2022-10-24T02:04:10.379Z,18.34
2022-10-24T02:05:15.869Z,18.39
2022-10-24T02:06:19.233Z,18.42
2022-10-24T02:07:20.881Z,18.47
2022-10-24T02:08:24.887Z,18.43
2022-10-24T02:09:26.400Z,18.46
2022-10-24T02:10:41.208Z,18.43
2022-10-24T02:11:42.832Z,18.44
2022-10-24T02:12:45.654Z,18.46
2022-10-24T02:13:50.539Z,18.50
2022-10-24T02:14:53.893Z,18.45
2022-10-24T02:15:56.232Z,18.40
2022-10-24T02:16:58.196Z,18.35
2022-10-24T02:17:59.838Z,18.31
2022-10-24T02:19:01.392Z,18.22
2022-10-24T02:20:03.788Z,18.16
2022-10-24T02:21:25.638Z,18.18
2022-10-24T02:22:31.218Z,18.13
2022-10-24T02:23:38.009Z,18.07
2022-10-24T02:24:42.713Z,18.06
2022-10-24T02:26:54.473Z,18.04
2022-10-24T02:28:09.701Z,18.01
2022-10-24T02:29:11.966Z,18.00
2022-10-24T02:30:14.393Z,18.04
2022-10-24T02:31:17.601Z,18.05
2022-10-24T02:32:20.551Z,18.02
2022-10-24T02:33:22.255Z,17.98
2022-10-24T02:34:24.187Z,17.99
2022-10-24T02:35:29.558Z,17.99
2022-10-24T02:36:31.118Z,18.03
2022-10-24T02:37:32.776Z,18.00
2022-10-24T02:38:35.240Z,18.01
2022-10-24T02:39:36.858Z,18.03
2022-10-24T02:40:38.451Z,18.06
2022-10-24T02:41:40.517Z,18.11
2022-10-24T02:42:42.258Z,18.14
2022-10-24T02:43:43.780Z,18.12
2022-10-24T02:44:47.112Z,18.15
2022-10-24T02:45:49.309Z,18.16
2022-10-24T02:46:51.333Z,18.15
2022-10-24T02:47:53.313Z,18.17
2022-10-24T02:48:56.647Z,18.14
2022-10-24T02:49:58.239Z,18.16
2022-10-24T02:51:00.226Z,18.20
2022-10-24T02:52:01.724Z,18.18
2022-10-24T02:53:03.400Z,18.22
2022-10-24T02:54:05.070Z,18.25
2022-10-24T02:55:06.878Z,18.27
2022-10-24T02:56:08.426Z,18.23
2022-10-24T02:57:10.314Z,18.21
2022-10-24T02:58:11.865Z,18.21
2022-10-24T02:59:13.587Z,18.24
2022-10-24T03:00:15.447Z,18.21
2022-10-24T03:01:17.276Z,18.22
2022-10-24T03:02:19.152Z,18.22
2022-10-24T03:03:22.360Z,18.26
2022-10-24T03:04:23.905Z,18.24
2022-10-24T03:05:25.613Z,18.22
2022-10-24T03:06:27.404Z,18.23
2022-10-24T03:08:35.612Z,18.32
2022-10-24T03:09:37.186Z,18.35
2022-10-24T03:10:38.758Z,18.36
2022-10-24T03:11:40.409Z,18.40
2022-10-24T03:12:42.052Z,18.40
2022-10-24T03:13:43.631Z,18.35
2022-10-24T03:14:45.243Z,18.36
2022-10-24T03:16:50.125Z,18.32
2022-10-24T03:17:51.907Z,18.28
2022-10-24T03:18:53.422Z,18.17
2022-10-24T03:19:54.911Z,18.14
2022-10-24T03:20:56.419Z,18.16
2022-10-24T03:21:58.151Z,18.12
2022-10-24T03:22:59.652Z,18.13
2022-10-24T03:24:01.137Z,18.13
2022-10-24T03:25:03.694Z,18.12
2022-10-24T03:26:05.171Z,18.09
2022-10-24T03:27:06.761Z,18.07
2022-10-24T03:28:08.280Z,18.02
2022-10-24T03:29:09.783Z,18.03
2022-10-24T03:30:11.567Z,18.05
2022-10-24T03:31:13.046Z,17.99
2022-10-24T03:32:14.664Z,17.91
2022-10-24T03:33:16.311Z,17.92
2022-10-24T03:34:17.763Z,17.88
2022-10-24T03:35:19.267Z,17.84
2022-10-24T03:36:20.726Z,17.82
2022-10-24T03:37:22.275Z,17.85
2022-10-24T03:38:23.860Z,17.92
2022-10-24T03:39:25.366Z,17.98
2022-10-24T03:40:27.170Z,17.97
2022-10-24T03:41:28.633Z,18.00
2022-10-24T03:42:30.259Z,18.04
2022-10-24T03:43:31.687Z,18.10
2022-10-24T03:44:33.253Z,18.13
2022-10-24T03:45:34.720Z,18.20
2022-10-24T03:46:36.315Z,18.26
2022-10-24T03:47:37.836Z,18.28
2022-10-24T03:48:39.330Z,18.27
2022-10-24T03:49:40.849Z,18.29
2022-10-24T03:50:42.460Z,18.33
2022-10-24T03:51:43.934Z,18.37
2022-10-24T03:52:45.635Z,18.40
2022-10-24T03:53:47.587Z,18.44
2022-10-24T03:54:49.269Z,18.47
2022-10-24T03:55:50.806Z,18.50
2022-10-24T03:56:52.358Z,18.52
2022-10-24T03:57:54.045Z,18.55
2022-10-24T03:58:55.658Z,18.56
2022-10-24T03:59:57.322Z,18.57
2022-10-24T04:00:59.590Z,18.59
2022-10-24T04:02:01.843Z,18.60
2022-10-24T04:03:03.444Z,18.61
2022-10-24T04:04:05.177Z,18.63
2022-10-24T04:05:07.014Z,18.64
2022-10-24T04:06:08.658Z,18.63
2022-10-24T04:07:10.301Z,18.61
2022-10-24T04:08:11.950Z,18.62
2022-10-24T04:09:13.513Z,18.63
2022-10-24T04:10:15.148Z,18.62
2022-10-24T04:11:16.694Z,18.64
2022-10-24T04:12:18.348Z,18.59
2022-10-24T04:13:19.990Z,18.55
2022-10-24T04:14:21.647Z,18.55
2022-10-24T04:15:23.187Z,18.46
2022-10-24T04:16:24.903Z,18.46
2022-10-24T04:17:26.406Z,18.41
2022-10-24T04:18:27.982Z,18.38
2022-10-24T04:19:29.654Z,18.31
2022-10-24T04:20:31.102Z,18.29
2022-10-24T04:21:32.647Z,18.22
2022-10-24T04:22:34.320Z,18.24
2022-10-24T04:23:40.980Z,18.22
2022-10-24T04:24:42.441Z,18.22
2022-10-24T04:25:44.120Z,18.22
2022-10-24T04:26:45.663Z,18.09
2022-10-24T04:27:47.657Z,18.09
2022-10-24T04:28:49.241Z,18.11
2022-10-24T04:29:50.942Z,18.11
2022-10-24T04:30:58.709Z,18.14
2022-10-24T04:32:00.315Z,18.14
2022-10-24T04:33:01.887Z,18.17
2022-10-24T04:34:05.257Z,18.15
2022-10-24T04:35:06.862Z,18.19
2022-10-24T04:36:08.415Z,18.20
2022-10-24T04:37:09.878Z,18.23
2022-10-24T04:38:11.598Z,18.29
2022-10-24T04:39:13.072Z,18.33
2022-10-24T04:40:14.643Z,18.35
2022-10-24T04:41:16.249Z,18.38
2022-10-24T04:42:17.800Z,18.36
2022-10-24T04:43:19.528Z,18.31
2022-10-24T04:44:21.209Z,18.26
2022-10-24T04:45:22.850Z,18.21
2022-10-24T04:46:24.535Z,18.10
2022-10-24T04:47:26.201Z,18.05
2022-10-24T04:48:27.832Z,17.97
2022-10-24T04:49:29.648Z,17.87
2022-10-24T04:50:31.219Z,17.77
2022-10-24T04:51:32.821Z,17.77
2022-10-24T04:52:34.311Z,17.82
2022-10-24T04:53:35.956Z,17.81
2022-10-24T04:54:37.684Z,17.82
2022-10-24T04:55:39.338Z,17.83
2022-10-24T04:56:41.038Z,17.80
2022-10-24T04:57:42.865Z,17.79
2022-10-24T04:58:44.632Z,17.79
2022-10-24T04:59:46.118Z,17.83
2022-10-24T05:00:49.809Z,17.87
2022-10-24T05:01:51.446Z,17.91
2022-10-24T05:02:55.479Z,17.90
2022-10-24T05:05:01.314Z,17.98
2022-10-24T05:06:02.880Z,18.01
2022-10-24T05:07:04.456Z,18.02
2022-10-24T05:08:06.008Z,18.06
2022-10-24T05:09:07.628Z,18.11
2022-10-24T05:10:09.350Z,18.12
2022-10-24T05:11:11.803Z,18.16
2022-10-24T05:12:13.598Z,18.17
2022-10-24T05:13:15.208Z,18.22
2022-10-24T05:14:16.855Z,18.25
2022-10-24T05:15:18.656Z,18.30
2022-10-24T05:16:20.280Z,18.33
2022-10-24T05:17:21.894Z,18.35
2022-10-24T05:18:23.461Z,18.34
2022-10-24T05:19:25.062Z,18.34
2022-10-24T05:20:26.970Z,18.36
2022-10-24T05:21:28.728Z,18.37
2022-10-24T05:22:30.355Z,18.38
2022-10-24T05:23:31.955Z,18.38
2022-10-24T05:24:33.662Z,18.40
2022-10-24T05:25:35.274Z,18.40
2022-10-24T05:26:36.885Z,18.41
2022-10-24T05:27:38.379Z,18.41
2022-10-24T05:28:40.010Z,18.34
2022-10-24T05:29:41.593Z,18.41
2022-10-24T05:30:46.230Z,18.41
2022-10-24T05:31:47.772Z,18.42
2022-10-24T05:32:49.339Z,18.42
2022-10-24T05:33:50.853Z,18.41
2022-10-24T05:34:52.428Z,18.40
2022-10-24T05:35:54.084Z,18.39
2022-10-24T05:36:55.757Z,18.36
2022-10-24T05:37:57.347Z,18.34
2022-10-24T05:38:58.860Z,18.35
2022-10-24T05:40:00.485Z,18.35
2022-10-24T05:41:02.258Z,18.36
2022-10-24T05:42:03.889Z,18.36
2022-10-24T05:43:05.455Z,18.34
2022-10-24T05:44:07.130Z,18.35
2022-10-24T05:45:09.112Z,18.36
2022-10-24T05:46:10.684Z,18.36
2022-10-24T05:47:12.332Z,18.37
2022-10-24T05:48:13.796Z,18.38
2022-10-24T05:49:15.291Z,18.37
2022-10-24T05:50:16.838Z,18.38
2022-10-24T05:51:18.301Z,18.39
2022-10-24T05:52:19.789Z,18.40
2022-10-24T05:53:21.300Z,18.40
2022-10-24T05:54:22.808Z,18.40
2022-10-24T05:55:24.343Z,18.40
2022-10-24T05:56:25.882Z,18.39
2022-10-24T05:57:27.450Z,18.38
2022-10-24T05:58:28.945Z,18.38
2022-10-24T05:59:30.446Z,18.38
2022-10-24T06:00:33.939Z,18.37
2022-10-24T06:01:35.487Z,18.38
2022-10-24T06:02:37.126Z,18.38
2022-10-24T06:03:39.583Z,18.32
2022-10-24T06:04:41.078Z,18.22
2022-10-24T06:05:42.539Z,18.06
2022-10-24T06:06:44.248Z,17.93
2022-10-24T06:07:45.999Z,17.88
2022-10-24T06:08:47.718Z,17.92
2022-10-24T06:09:49.229Z,17.92
2022-10-24T06:10:50.902Z,17.86
2022-10-24T06:11:52.488Z,17.74
2022-10-24T06:12:54.045Z,17.71
2022-10-24T06:13:55.549Z,17.71
2022-10-24T06:14:57.387Z,17.67
2022-10-24T06:15:58.853Z,17.57
2022-10-24T06:17:00.339Z,17.52
2022-10-24T06:18:01.923Z,17.66
2022-10-24T06:19:03.404Z,17.64
2022-10-24T06:20:05.127Z,17.65
2022-10-24T06:21:07.072Z,17.59
2022-10-24T06:22:08.644Z,17.52
2022-10-24T06:23:10.156Z,17.43
2022-10-24T06:24:11.642Z,17.40
2022-10-24T06:25:13.257Z,17.42
2022-10-24T06:26:15.095Z,17.42
2022-10-24T06:27:16.619Z,17.46
2022-10-24T06:28:18.100Z,17.41
2022-10-24T06:29:19.583Z,17.41
2022-10-24T06:30:21.100Z,17.47
2022-10-24T06:31:22.727Z,17.43
2022-10-24T06:32:24.192Z,17.43
2022-10-24T06:33:25.683Z,17.48
2022-10-24T06:34:27.218Z,17.50
2022-10-24T06:35:28.693Z,17.54
2022-10-24T06:36:31.596Z,17.56
2022-10-24T06:37:33.635Z,17.58
2022-10-24T06:38:35.851Z,17.52
2022-10-24T06:39:37.330Z,17.51
2022-10-24T06:40:40.911Z,17.50
2022-10-24T06:41:42.438Z,17.53
2022-10-24T06:42:48.736Z,17.57
2022-10-24T06:43:50.554Z,17.62
2022-10-24T06:44:52.044Z,17.66
2022-10-24T06:45:53.613Z,17.72
2022-10-24T06:46:55.088Z,17.76
2022-10-24T06:47:56.767Z,17.83
2022-10-24T06:48:58.513Z,17.90
2022-10-24T06:50:00.019Z,17.96
2022-10-24T06:51:01.568Z,17.96
2022-10-24T06:52:03.078Z,17.94
2022-10-24T06:53:04.619Z,17.91
2022-10-24T06:54:06.116Z,17.96
2022-10-24T06:55:07.837Z,17.99
2022-10-24T06:56:09.481Z,18.01
2022-10-24T06:57:11.006Z,18.04
2022-10-24T06:58:12.491Z,18.10
2022-10-24T06:59:15.128Z,18.13
2022-10-24T07:00:16.877Z,18.15
2022-10-24T07:01:21.800Z,18.18
2022-10-24T07:02:23.613Z,18.17
2022-10-24T07:03:25.125Z,18.14
2022-10-24T07:04:26.816Z,18.15
2022-10-24T07:05:28.379Z,18.10
2022-10-24T07:06:29.860Z,18.02
2022-10-24T07:07:31.354Z,17.95
2022-10-24T07:08:33.103Z,17.91
2022-10-24T07:09:34.688Z,17.92
2022-10-24T07:10:36.221Z,17.90
2022-10-24T07:11:37.844Z,17.94
2022-10-24T07:12:39.453Z,17.93
2022-10-24T07:13:40.976Z,17.97
2022-10-24T07:14:42.499Z,17.94
2022-10-24T07:15:44.074Z,17.92
2022-10-24T07:16:45.729Z,17.96
2022-10-24T07:17:47.401Z,17.97
2022-10-24T07:18:49.007Z,17.96
2022-10-24T07:19:53.986Z,17.93
2022-10-24T07:20:55.917Z,17.93
2022-10-24T07:21:57.542Z,17.92
2022-10-24T07:22:59.227Z,17.96
2022-10-24T07:24:01.424Z,17.99
2022-10-24T07:25:03.598Z,17.99
2022-10-24T07:26:06.161Z,17.99
2022-10-24T07:27:07.819Z,18.01
2022-10-24T07:28:11.063Z,17.98
2022-10-24T07:29:12.672Z,17.94
2022-10-24T07:30:16.084Z,17.86
2022-10-24T07:31:17.738Z,17.87
2022-10-24T07:32:19.741Z,17.91
2022-10-24T07:33:21.435Z,17.85
2022-10-24T07:34:23.024Z,17.77
2022-10-24T07:35:24.701Z,17.74
2022-10-24T07:36:26.831Z,17.75
2022-10-24T07:37:28.473Z,17.75
2022-10-24T07:38:30.126Z,17.75
2022-10-24T07:39:31.873Z,17.75
2022-10-24T07:40:33.476Z,17.79
2022-10-24T07:41:36.593Z,17.82
2022-10-24T07:42:38.380Z,17.79
2022-10-24T07:43:40.005Z,17.78
2022-10-24T07:44:41.915Z,17.71
2022-10-24T07:45:47.753Z,17.75
2022-10-24T07:46:52.790Z,17.69
2022-10-24T07:47:54.490Z,17.72
2022-10-24T07:48:55.974Z,17.78
2022-10-24T07:49:57.655Z,17.81
2022-10-24T07:50:59.328Z,17.86
2022-10-24T07:52:00.992Z,17.94
2022-10-24T07:53:02.659Z,17.96
2022-10-24T07:54:04.432Z,17.92
2022-10-24T07:55:06.143Z,17.94
2022-10-24T07:56:10.442Z,17.91
2022-10-24T07:57:11.988Z,17.94
2022-10-24T07:58:13.694Z,18.01
2022-10-24T07:59:37.170Z,18.01
2022-10-24T08:00:40.111Z,18.07
2022-10-24T08:01:46.149Z,18.10
2022-10-24T08:03:54.809Z,18.20
2022-10-24T08:04:56.545Z,18.21
2022-10-24T08:05:58.673Z,18.26
2022-10-24T08:07:00.407Z,18.32
2022-10-24T08:08:24.766Z,18.34
2022-10-24T08:09:23.518Z,18.40
2022-10-24T08:10:25.267Z,18.39
2022-10-24T08:11:27.313Z,18.47
2022-10-24T08:12:28.939Z,18.45
2022-10-24T08:13:30.688Z,18.44
2022-10-24T08:14:32.416Z,18.48
2022-10-24T08:15:34.025Z,18.51
2022-10-24T08:16:35.704Z,18.57
2022-10-24T08:17:37.228Z,18.54
2022-10-24T08:18:39.967Z,18.51
2022-10-24T08:19:43.955Z,18.53
2022-10-24T08:20:46.157Z,18.56
2022-10-24T08:21:48.163Z,18.54
2022-10-24T08:22:49.957Z,18.54
2022-10-24T08:23:52.784Z,18.56
2022-10-24T08:24:54.377Z,18.54
2022-10-24T08:25:56.102Z,18.56
2022-10-24T08:26:57.664Z,18.57
2022-10-24T08:27:59.697Z,18.60
2022-10-24T08:29:04.502Z,18.60
2022-10-24T08:30:06.556Z,18.59
2022-10-24T08:31:09.032Z,18.66
2022-10-24T08:32:10.607Z,18.66
2022-10-24T08:33:15.847Z,18.64
2022-10-24T08:34:20.425Z,18.63
2022-10-24T08:35:22.097Z,18.60
2022-10-24T08:36:30.428Z,18.62
2022-10-24T08:37:32.111Z,18.67
2022-10-24T08:38:33.821Z,18.71
2022-10-24T08:39:35.547Z,18.75
2022-10-24T08:40:37.478Z,18.78
2022-10-24T08:41:40.220Z,18.79
2022-10-24T08:42:41.918Z,18.76
2022-10-24T08:43:43.569Z,18.72
2022-10-24T08:44:45.599Z,18.77
2022-10-24T08:46:07.377Z,18.77
2022-10-24T08:47:27.901Z,18.78
2022-10-24T08:48:32.143Z,18.86
2022-10-24T08:49:44.200Z,18.91
2022-10-24T08:50:49.705Z,18.86
2022-10-24T08:51:53.543Z,18.86
2022-10-24T08:53:03.033Z,18.89
2022-10-24T08:54:04.854Z,18.92
2022-10-24T08:55:25.155Z,18.98
2022-10-24T08:56:33.141Z,19.15
2022-10-24T08:57:35.043Z,19.31
2022-10-24T08:58:37.602Z,19.47
2022-10-24T08:59:39.376Z,19.62
2022-10-24T09:00:41.872Z,19.67
2022-10-24T09:02:00.498Z,19.74
2022-10-24T09:03:20.028Z,19.85
2022-10-24T09:04:29.200Z,19.90
2022-10-24T09:05:51.139Z,20.07
2022-10-24T09:06:53.035Z,20.28
2022-10-24T09:08:01.751Z,20.39
2022-10-24T09:09:03.457Z,20.64
2022-10-24T09:10:06.743Z,20.77
2022-10-24T09:11:14.303Z,20.97
2022-10-24T09:12:16.613Z,21.19
2022-10-24T09:13:18.335Z,21.35
2022-10-24T09:14:24.001Z,21.44
2022-10-24T09:15:26.453Z,21.58
2022-10-24T09:16:28.098Z,21.77
2022-10-24T09:17:29.602Z,21.90
2022-10-24T09:18:32.138Z,22.07
2022-10-24T09:19:33.738Z,22.26
2022-10-24T09:20:35.396Z,22.48
2022-10-24T09:21:37.465Z,22.51
2022-10-24T09:22:42.045Z,22.66
2022-10-24T09:23:45.998Z,22.73
2022-10-24T09:24:55.377Z,22.84
2022-10-24T09:25:57.113Z,22.90
2022-10-24T09:27:00.454Z,22.86
2022-10-24T09:28:02.907Z,22.95
2022-10-24T09:29:04.409Z,22.94
2022-10-24T09:30:08.125Z,23.00
2022-10-24T09:31:15.802Z,23.12
2022-10-24T09:32:18.400Z,23.28
2022-10-24T09:33:23.261Z,23.39
2022-10-24T09:34:24.937Z,23.49
2022-10-24T09:35:27.356Z,23.63
2022-10-24T09:36:29.446Z,23.75
2022-10-24T09:37:44.213Z,23.92
2022-10-24T09:38:49.118Z,23.96
2022-10-24T09:39:50.821Z,24.11
2022-10-24T09:40:53.169Z,24.11
2022-10-24T09:41:54.924Z,24.00
2022-10-24T09:43:11.589Z,23.91
2022-10-24T09:44:27.313Z,23.65
2022-10-24T09:45:29.209Z,23.77
2022-10-24T09:46:45.165Z,23.81
2022-10-24T09:47:47.090Z,23.84
2022-10-24T09:48:49.126Z,23.88
2022-10-24T09:49:50.691Z,23.73
2022-10-24T09:50:52.544Z,23.80
2022-10-24T09:52:01.366Z,23.96
2022-10-24T09:53:04.246Z,23.88
2022-10-24T09:54:06.714Z,24.01
2022-10-24T09:55:18.513Z,24.10
2022-10-24T09:56:20.285Z,24.23
2022-10-24T09:57:25.757Z,24.33
2022-10-24T09:58:32.824Z,24.49
2022-10-24T09:59:35.951Z,24.61
2022-10-24T10:00:38.050Z,24.79
2022-10-24T10:01:41.198Z,25.01
2022-10-24T10:02:42.809Z,25.17
2022-10-24T10:03:44.768Z,25.32
2022-10-24T10:04:47.290Z,25.50
2022-10-24T10:05:55.711Z,25.53
2022-10-24T10:06:57.314Z,25.55
2022-10-24T10:08:00.928Z,25.62
2022-10-24T10:09:02.567Z,25.43
2022-10-24T10:10:05.686Z,25.36
2022-10-24T10:11:11.303Z,25.40
2022-10-24T10:12:34.681Z,25.52
2022-10-24T10:13:38.869Z,25.80
2022-10-24T10:14:40.788Z,25.77
2022-10-24T10:15:50.386Z,25.67
2022-10-24T10:17:00.551Z,25.75
2022-10-24T10:18:03.988Z,25.81
2022-10-24T10:19:05.632Z,25.80
2022-10-24T10:20:09.718Z,25.69
2022-10-24T10:21:11.529Z,25.79
2022-10-24T10:22:22.603Z,25.73
2022-10-24T10:23:27.069Z,25.49
2022-10-24T10:24:39.082Z,25.54
2022-10-24T10:25:40.722Z,25.44
2022-10-24T10:26:43.332Z,25.52
2022-10-24T10:27:46.902Z,25.45
2022-10-24T10:28:51.240Z,25.53
2022-10-24T10:30:11.589Z,25.58
2022-10-24T10:31:13.360Z,25.62
2022-10-24T10:32:19.616Z,25.85
2022-10-24T10:33:27.380Z,25.96
2022-10-24T10:34:32.409Z,26.07
2022-10-24T10:35:45.043Z,26.23
2022-10-24T10:37:01.962Z,26.24
2022-10-24T10:38:22.397Z,26.32
2022-10-24T10:39:23.994Z,26.26
2022-10-24T10:40:28.814Z,26.38
2022-10-24T10:41:33.692Z,26.43
2022-10-24T10:42:45.035Z,26.50
2022-10-24T10:44:02.555Z,26.57
2022-10-24T10:45:22.739Z,26.48
2022-10-24T10:46:43.322Z,26.55
2022-10-24T10:47:51.787Z,26.79
2022-10-24T10:49:00.018Z,26.81
2022-10-24T10:50:02.039Z,26.74
2022-10-24T10:51:22.565Z,26.83
2022-10-24T10:52:34.208Z,26.76
2022-10-24T10:53:47.801Z,26.64
2022-10-24T10:54:58.633Z,26.63
2022-10-24T10:56:03.283Z,26.62
2022-10-24T10:57:16.041Z,26.40
2022-10-24T10:58:40.574Z,26.26
2022-10-24T10:59:54.516Z,25.77
2022-10-24T11:01:08.999Z,25.63
2022-10-24T11:02:24.541Z,25.58
2022-10-24T11:03:31.030Z,25.71
2022-10-24T11:04:32.558Z,25.86
2022-10-24T11:05:37.452Z,25.87
2022-10-24T11:07:14.599Z,25.77
2022-10-24T11:08:38.867Z,25.70
2022-10-24T11:09:44.575Z,25.56
2022-10-24T11:10:53.431Z,25.64
2022-10-24T11:11:59.990Z,25.72
2022-10-24T11:13:01.639Z,25.79
2022-10-24T11:14:03.198Z,25.84
2022-10-24T11:15:09.781Z,25.83
2022-10-24T11:16:13.018Z,25.71
2022-10-24T11:17:17.422Z,25.64
2022-10-24T11:18:23.428Z,25.47
2022-10-24T11:19:25.041Z,25.29
2022-10-24T11:20:42.927Z,25.33
2022-10-24T11:21:45.107Z,25.38
2022-10-24T11:22:48.865Z,25.48
2022-10-24T11:23:52.428Z,25.53
2022-10-24T11:24:58.646Z,25.48
2022-10-24T11:26:10.749Z,25.35
2022-10-24T11:27:26.648Z,25.29
2022-10-24T11:28:37.275Z,25.24
2022-10-24T11:30:11.342Z,25.16
2022-10-24T11:31:12.851Z,25.11
2022-10-24T11:32:29.825Z,25.14
2022-10-24T11:33:33.028Z,25.14
2022-10-24T11:34:34.682Z,25.13
2022-10-24T11:35:40.399Z,25.12
2022-10-24T11:36:46.372Z,25.14
2022-10-24T11:37:49.793Z,25.16
2022-10-24T11:38:56.066Z,25.21
2022-10-24T11:39:58.490Z,25.19
2022-10-24T11:41:11.978Z,24.91
2022-10-24T11:42:26.935Z,24.87
2022-10-24T11:43:30.405Z,24.81
2022-10-24T11:44:50.422Z,24.85
2022-10-24T11:45:53.689Z,24.84
2022-10-24T11:47:06.252Z,24.78
2022-10-24T11:48:19.527Z,24.75
2022-10-24T11:49:25.779Z,24.82
2022-10-24T11:50:38.149Z,24.86
2022-10-24T11:51:40.825Z,24.96
2022-10-24T11:52:43.577Z,25.03
2022-10-24T11:53:52.550Z,25.02
2022-10-24T11:54:59.697Z,25.02
2022-10-24T11:56:24.914Z,25.07
2022-10-24T11:57:28.987Z,25.14
2022-10-24T11:58:31.202Z,25.24
2022-10-24T11:59:32.702Z,25.26
2022-10-24T12:00:57.251Z,25.32
2022-10-24T12:02:02.562Z,25.42
2022-10-24T12:03:04.093Z,25.47
2022-10-24T12:04:15.759Z,25.52
2022-10-24T12:06:45.586Z,25.43
2022-10-24T12:07:59.006Z,25.46
2022-10-24T12:09:05.511Z,25.47
2022-10-24T12:10:18.972Z,25.45
2022-10-24T12:11:24.091Z,25.44
2022-10-24T12:12:28.211Z,25.41
2022-10-24T12:13:41.846Z,25.38
2022-10-24T12:14:45.893Z,25.34
2022-10-24T12:15:59.048Z,25.36
2022-10-24T12:17:18.652Z,25.36
2022-10-24T12:18:20.227Z,25.40
2022-10-24T12:19:21.723Z,25.44
2022-10-24T12:20:23.466Z,25.47
2022-10-24T12:21:26.238Z,25.46
2022-10-24T12:22:30.709Z,25.38
2022-10-24T12:23:32.166Z,25.39
2022-10-24T12:24:35.852Z,25.45
2022-10-24T12:25:37.456Z,25.43
2022-10-24T12:26:38.925Z,25.42
2022-10-24T12:27:40.472Z,25.44
2022-10-24T12:28:41.983Z,25.45
2022-10-24T12:29:43.542Z,25.47
2022-10-24T12:30:45.177Z,25.52
2022-10-24T12:31:46.690Z,25.52
2022-10-24T12:32:49.361Z,25.54
2022-10-24T12:34:09.916Z,25.55
2022-10-24T12:35:31.312Z,25.55
2022-10-24T12:36:51.818Z,25.55
2022-10-24T12:37:53.835Z,25.50
2022-10-24T12:38:58.117Z,25.39
2022-10-24T12:39:59.675Z,25.39
2022-10-24T12:41:06.664Z,25.35
2022-10-24T12:42:33.929Z,25.22
2022-10-24T12:43:38.721Z,25.31
2022-10-24T12:44:41.279Z,25.32
2022-10-24T12:45:42.802Z,25.30
2022-10-24T12:46:44.336Z,25.32
2022-10-24T12:48:57.175Z,25.39
2022-10-24T12:49:59.527Z,25.42
2022-10-24T12:51:30.329Z,25.40
2022-10-24T12:52:31.838Z,25.46
2022-10-24T12:53:39.999Z,25.36
2022-10-24T12:54:44.763Z,25.38
2022-10-24T12:55:46.242Z,25.41
2022-10-24T12:56:51.260Z,25.42
2022-10-24T12:57:52.880Z,25.30
2022-10-24T12:59:04.371Z,25.30
2022-10-24T13:00:21.766Z,25.28
2022-10-24T13:01:29.583Z,25.28
2022-10-24T13:02:43.092Z,25.29
2022-10-24T13:03:56.365Z,25.31
2022-10-24T13:05:10.142Z,25.34
2022-10-24T13:06:16.577Z,25.30
2022-10-24T13:07:18.258Z,25.21
2022-10-24T13:08:26.502Z,25.12
2022-10-24T13:09:32.081Z,25.14
2022-10-24T13:10:49.197Z,25.06
2022-10-24T13:11:54.147Z,25.01
2022-10-24T13:13:05.652Z,24.99
2022-10-24T13:14:16.246Z,25.03
2022-10-24T13:15:26.770Z,25.03
2022-10-24T13:16:28.271Z,25.09
2022-10-24T13:17:29.715Z,25.13
2022-10-24T13:18:31.285Z,25.15
2022-10-24T13:19:32.751Z,25.18
2022-10-24T13:20:38.221Z,25.20
2022-10-24T13:21:46.846Z,25.13
2022-10-24T13:22:50.852Z,25.12
2022-10-24T13:23:52.359Z,25.07
2022-10-24T13:24:55.554Z,25.09
2022-10-24T13:25:57.333Z,25.14
2022-10-24T13:27:12.538Z,25.17
2022-10-24T13:28:19.752Z,25.17
2022-10-24T13:29:21.206Z,25.07
2022-10-24T13:30:23.504Z,25.04
2022-10-24T13:31:25.005Z,25.03
2022-10-24T13:32:31.237Z,25.01
2022-10-24T13:33:40.124Z,24.98
2022-10-24T13:34:41.567Z,24.90
2022-10-24T13:35:43.043Z,24.91
2022-10-24T13:36:45.098Z,24.87
2022-10-24T13:37:47.580Z,24.86
2022-10-24T13:38:58.294Z,24.85
2022-10-24T13:40:07.571Z,24.89
2022-10-24T13:41:10.016Z,24.91
2022-10-24T13:42:35.090Z,24.91
2022-10-24T13:43:43.305Z,24.96
2022-10-24T13:44:46.216Z,24.97
2022-10-24T13:45:54.236Z,25.00
2022-10-24T13:46:57.313Z,25.04
2022-10-24T13:48:22.242Z,25.08
2022-10-24T13:49:26.354Z,25.12
2022-10-24T13:50:31.183Z,25.12
2022-10-24T13:51:51.191Z,25.11
2022-10-24T13:52:54.855Z,25.07
2022-10-24T13:53:57.626Z,25.04
2022-10-24T13:55:03.842Z,25.05
2022-10-24T13:56:08.378Z,25.01
2022-10-24T13:57:26.132Z,24.99